sensor_id;sensor_type;location;lat;lon;timestamp;P1;durP1;ratioP1;P2;durP2;ratioP2
54428;SDS011;40337;52.978;6.310;2023-11-19T00:00:10;44.17;;;24.83;;
54428;SDS011;40337;52.978;6.310;2023-11-19T00:02:39;44.85;;;22.15;;
54428;SDS011;40337;52.978;6.310;2023-11-19T00:05:05;41.30;;;20.73;;
54428;SDS011;40337;52.978;6.310;2023-11-19T00:07:37;38.78;;;21.13;;
54428;SDS011;40337;52.978;6.310;2023-11-19T00:10:09;37.75;;;18.27;;
54428;SDS011;40337;52.978;6.310;2023-11-19T00:12:36;37.03;;;17.05;;
54428;SDS011;40337;52.978;6.310;2023-11-19T00:15:03;31.63;;;15.70;;
54428;SDS011;40337;52.978;6.310;2023-11-19T00:17:30;30.40;;;14.63;;
54428;SDS011;40337;52.978;6.310;2023-11-19T00:19:56;33.20;;;12.30;;
54428;SDS011;40337;52.978;6.310;2023-11-19T00:22:22;33.17;;;12.73;;
54428;SDS011;40337;52.978;6.310;2023-11-19T00:24:48;36.80;;;12.52;;
54428;SDS011;40337;52.978;6.310;2023-11-19T00:27:13;32.78;;;10.70;;
54428;SDS011;40337;52.978;6.310;2023-11-19T00:29:39;33.20;;;9.70;;
54428;SDS011;40337;52.978;6.310;2023-11-19T00:32:05;29.15;;;10.43;;
54428;SDS011;40337;52.978;6.310;2023-11-19T00:34:34;37.15;;;8.98;;
54428;SDS011;40337;52.978;6.310;2023-11-19T00:36:59;27.27;;;8.48;;
54428;SDS011;40337;52.978;6.310;2023-11-19T00:39:25;28.38;;;7.78;;
54428;SDS011;40337;52.978;6.310;2023-11-19T00:41:50;30.75;;;7.57;;
54428;SDS011;40337;52.978;6.310;2023-11-19T00:44:16;30.90;;;7.85;;
54428;SDS011;40337;52.978;6.310;2023-11-19T00:46:41;34.55;;;8.52;;
54428;SDS011;40337;52.978;6.310;2023-11-19T00:49:07;28.10;;;6.95;;
54428;SDS011;40337;52.978;6.310;2023-11-19T00:51:33;34.85;;;8.13;;
54428;SDS011;40337;52.978;6.310;2023-11-19T00:53:58;27.35;;;7.85;;
54428;SDS011;40337;52.978;6.310;2023-11-19T00:56:24;33.65;;;8.15;;
54428;SDS011;40337;52.978;6.310;2023-11-19T00:58:49;33.95;;;8.13;;
54428;SDS011;40337;52.978;6.310;2023-11-19T01:01:15;29.35;;;7.45;;
54428;SDS011;40337;52.978;6.310;2023-11-19T01:03:41;28.23;;;7.10;;
54428;SDS011;40337;52.978;6.310;2023-11-19T01:06:06;29.25;;;7.18;;
54428;SDS011;40337;52.978;6.310;2023-11-19T01:08:33;32.90;;;7.18;;
54428;SDS011;40337;52.978;6.310;2023-11-19T01:11:00;30.20;;;7.63;;
54428;SDS011;40337;52.978;6.310;2023-11-19T01:13:27;29.23;;;7.10;;
54428;SDS011;40337;52.978;6.310;2023-11-19T01:15:53;31.15;;;7.05;;
54428;SDS011;40337;52.978;6.310;2023-11-19T01:18:18;33.00;;;7.43;;
54428;SDS011;40337;52.978;6.310;2023-11-19T01:20:44;30.40;;;6.95;;
54428;SDS011;40337;52.978;6.310;2023-11-19T01:23:10;30.98;;;7.65;;
54428;SDS011;40337;52.978;6.310;2023-11-19T01:25:35;33.75;;;7.45;;
54428;SDS011;40337;52.978;6.310;2023-11-19T01:28:03;32.35;;;7.10;;
54428;SDS011;40337;52.978;6.310;2023-11-19T01:30:29;30.75;;;7.43;;
54428;SDS011;40337;52.978;6.310;2023-11-19T01:32:55;32.60;;;7.22;;
54428;SDS011;40337;52.978;6.310;2023-11-19T01:35:21;29.77;;;6.57;;
54428;SDS011;40337;52.978;6.310;2023-11-19T01:37:48;29.35;;;7.00;;
54428;SDS011;40337;52.978;6.310;2023-11-19T01:40:13;35.67;;;7.65;;
54428;SDS011;40337;52.978;6.310;2023-11-19T01:42:40;26.27;;;6.88;;
54428;SDS011;40337;52.978;6.310;2023-11-19T01:45:06;32.50;;;7.22;;
54428;SDS011;40337;52.978;6.310;2023-11-19T01:47:33;27.17;;;6.93;;
54428;SDS011;40337;52.978;6.310;2023-11-19T01:50:00;33.85;;;7.72;;
54428;SDS011;40337;52.978;6.310;2023-11-19T01:52:27;33.28;;;7.60;;
54428;SDS011;40337;52.978;6.310;2023-11-19T01:54:53;25.85;;;7.13;;
54428;SDS011;40337;52.978;6.310;2023-11-19T01:57:20;34.13;;;6.95;;
54428;SDS011;40337;52.978;6.310;2023-11-19T01:59:48;32.00;;;7.43;;
54428;SDS011;40337;52.978;6.310;2023-11-19T02:02:17;30.30;;;7.38;;
54428;SDS011;40337;52.978;6.310;2023-11-19T02:04:46;24.75;;;6.18;;
54428;SDS011;40337;52.978;6.310;2023-11-19T02:07:13;28.98;;;7.25;;
54428;SDS011;40337;52.978;6.310;2023-11-19T02:09:42;29.52;;;7.15;;
54428;SDS011;40337;52.978;6.310;2023-11-19T02:12:08;26.52;;;7.00;;
54428;SDS011;40337;52.978;6.310;2023-11-19T02:14:36;29.90;;;7.65;;
54428;SDS011;40337;52.978;6.310;2023-11-19T02:17:02;26.58;;;6.72;;
54428;SDS011;40337;52.978;6.310;2023-11-19T02:19:29;26.58;;;7.18;;
54428;SDS011;40337;52.978;6.310;2023-11-19T02:21:54;30.10;;;7.43;;
54428;SDS011;40337;52.978;6.310;2023-11-19T02:24:21;27.50;;;6.55;;
54428;SDS011;40337;52.978;6.310;2023-11-19T02:27:10;25.73;;;6.47;;
54428;SDS011;40337;52.978;6.310;2023-11-19T02:29:44;30.02;;;7.57;;
54428;SDS011;40337;52.978;6.310;2023-11-19T02:32:10;31.65;;;6.68;;
54428;SDS011;40337;52.978;6.310;2023-11-19T02:34:38;32.92;;;7.35;;
54428;SDS011;40337;52.978;6.310;2023-11-19T02:37:04;27.75;;;6.80;;
54428;SDS011;40337;52.978;6.310;2023-11-19T02:39:30;30.13;;;7.15;;
54428;SDS011;40337;52.978;6.310;2023-11-19T02:41:55;30.05;;;7.53;;
54428;SDS011;40337;52.978;6.310;2023-11-19T02:44:21;27.75;;;7.28;;
54428;SDS011;40337;52.978;6.310;2023-11-19T02:46:46;27.27;;;7.25;;
54428;SDS011;40337;52.978;6.310;2023-11-19T02:49:13;29.13;;;6.55;;
54428;SDS011;40337;52.978;6.310;2023-11-19T02:51:40;31.63;;;6.90;;
54428;SDS011;40337;52.978;6.310;2023-11-19T02:54:05;30.27;;;6.75;;
54428;SDS011;40337;52.978;6.310;2023-11-19T02:56:31;29.08;;;6.85;;
54428;SDS011;40337;52.978;6.310;2023-11-19T02:59:00;28.58;;;7.07;;
54428;SDS011;40337;52.978;6.310;2023-11-19T03:01:39;33.92;;;7.28;;
54428;SDS011;40337;52.978;6.310;2023-11-19T03:04:08;24.98;;;6.22;;
54428;SDS011;40337;52.978;6.310;2023-11-19T03:06:37;32.22;;;7.47;;
54428;SDS011;40337;52.978;6.310;2023-11-19T03:09:03;28.90;;;6.88;;
54428;SDS011;40337;52.978;6.310;2023-11-19T03:11:33;29.42;;;7.32;;
54428;SDS011;40337;52.978;6.310;2023-11-19T03:13:58;31.85;;;7.47;;
54428;SDS011;40337;52.978;6.310;2023-11-19T03:16:24;31.42;;;7.45;;
54428;SDS011;40337;52.978;6.310;2023-11-19T03:18:50;30.70;;;7.90;;
54428;SDS011;40337;52.978;6.310;2023-11-19T03:21:15;30.25;;;7.60;;
54428;SDS011;40337;52.978;6.310;2023-11-19T03:23:41;27.80;;;6.28;;
54428;SDS011;40337;52.978;6.310;2023-11-19T03:26:10;28.10;;;6.90;;
54428;SDS011;40337;52.978;6.310;2023-11-19T03:28:36;34.65;;;7.82;;
54428;SDS011;40337;52.978;6.310;2023-11-19T03:31:04;33.08;;;7.45;;
54428;SDS011;40337;52.978;6.310;2023-11-19T03:33:33;29.27;;;6.80;;
54428;SDS011;40337;52.978;6.310;2023-11-19T03:35:58;33.72;;;6.75;;
54428;SDS011;40337;52.978;6.310;2023-11-19T03:38:24;34.53;;;7.63;;
54428;SDS011;40337;52.978;6.310;2023-11-19T03:40:50;27.45;;;7.13;;
54428;SDS011;40337;52.978;6.310;2023-11-19T03:43:15;31.98;;;7.53;;
54428;SDS011;40337;52.978;6.310;2023-11-19T03:45:41;31.00;;;7.32;;
54428;SDS011;40337;52.978;6.310;2023-11-19T03:48:07;36.65;;;6.85;;
54428;SDS011;40337;52.978;6.310;2023-11-19T03:50:32;32.30;;;7.22;;
54428;SDS011;40337;52.978;6.310;2023-11-19T03:52:58;34.10;;;7.47;;
54428;SDS011;40337;52.978;6.310;2023-11-19T03:55:24;31.73;;;7.65;;
54428;SDS011;40337;52.978;6.310;2023-11-19T03:57:49;33.53;;;7.57;;
54428;SDS011;40337;52.978;6.310;2023-11-19T04:00:15;32.25;;;7.50;;
54428;SDS011;40337;52.978;6.310;2023-11-19T04:02:41;34.50;;;8.13;;
54428;SDS011;40337;52.978;6.310;2023-11-19T04:05:07;28.42;;;7.13;;
54428;SDS011;40337;52.978;6.310;2023-11-19T04:07:32;28.92;;;7.32;;
54428;SDS011;40337;52.978;6.310;2023-11-19T04:09:59;30.02;;;7.05;;
54428;SDS011;40337;52.978;6.310;2023-11-19T04:12:25;34.50;;;7.47;;
54428;SDS011;40337;52.978;6.310;2023-11-19T04:14:50;36.30;;;7.32;;
54428;SDS011;40337;52.978;6.310;2023-11-19T04:17:16;33.03;;;7.30;;
54428;SDS011;40337;52.978;6.310;2023-11-19T04:19:42;35.38;;;7.57;;
54428;SDS011;40337;52.978;6.310;2023-11-19T04:22:08;35.40;;;8.35;;
54428;SDS011;40337;52.978;6.310;2023-11-19T04:24:34;32.33;;;6.70;;
54428;SDS011;40337;52.978;6.310;2023-11-19T04:27:01;37.05;;;8.43;;
54428;SDS011;40337;52.978;6.310;2023-11-19T04:29:26;29.90;;;7.53;;
54428;SDS011;40337;52.978;6.310;2023-11-19T04:31:52;35.70;;;8.20;;
54428;SDS011;40337;52.978;6.310;2023-11-19T04:34:18;34.70;;;7.93;;
54428;SDS011;40337;52.978;6.310;2023-11-19T04:36:44;33.42;;;7.82;;
54428;SDS011;40337;52.978;6.310;2023-11-19T04:39:10;33.92;;;7.90;;
54428;SDS011;40337;52.978;6.310;2023-11-19T04:41:47;34.92;;;8.13;;
54428;SDS011;40337;52.978;6.310;2023-11-19T04:44:20;34.45;;;8.52;;
54428;SDS011;40337;52.978;6.310;2023-11-19T04:46:46;29.23;;;7.10;;
54428;SDS011;40337;52.978;6.310;2023-11-19T04:49:12;36.78;;;7.97;;
54428;SDS011;40337;52.978;6.310;2023-11-19T04:51:40;34.40;;;7.50;;
54428;SDS011;40337;52.978;6.310;2023-11-19T04:54:06;31.05;;;7.40;;
54428;SDS011;40337;52.978;6.310;2023-11-19T04:56:33;33.78;;;7.28;;
54428;SDS011;40337;52.978;6.310;2023-11-19T04:59:01;32.35;;;7.85;;
54428;SDS011;40337;52.978;6.310;2023-11-19T05:01:27;32.00;;;8.10;;
54428;SDS011;40337;52.978;6.310;2023-11-19T05:03:53;33.47;;;8.13;;
54428;SDS011;40337;52.978;6.310;2023-11-19T05:06:18;31.52;;;6.93;;
54428;SDS011;40337;52.978;6.310;2023-11-19T05:08:44;37.97;;;8.60;;
54428;SDS011;40337;52.978;6.310;2023-11-19T05:11:11;29.13;;;7.63;;
54428;SDS011;40337;52.978;6.310;2023-11-19T05:13:38;33.08;;;8.27;;
54428;SDS011;40337;52.978;6.310;2023-11-19T05:16:04;31.60;;;7.38;;
54428;SDS011;40337;52.978;6.310;2023-11-19T05:18:30;33.17;;;7.63;;
54428;SDS011;40337;52.978;6.310;2023-11-19T05:20:56;38.17;;;8.20;;
54428;SDS011;40337;52.978;6.310;2023-11-19T05:23:21;32.22;;;7.97;;
54428;SDS011;40337;52.978;6.310;2023-11-19T05:25:47;37.72;;;8.43;;
54428;SDS011;40337;52.978;6.310;2023-11-19T05:28:12;28.38;;;6.85;;
54428;SDS011;40337;52.978;6.310;2023-11-19T05:30:39;35.92;;;7.80;;
54428;SDS011;40337;52.978;6.310;2023-11-19T05:33:05;38.53;;;8.52;;
54428;SDS011;40337;52.978;6.310;2023-11-19T05:35:31;36.25;;;8.13;;
54428;SDS011;40337;52.978;6.310;2023-11-19T05:37:57;36.10;;;7.82;;
54428;SDS011;40337;52.978;6.310;2023-11-19T05:40:23;34.13;;;8.32;;
54428;SDS011;40337;52.978;6.310;2023-11-19T05:42:48;30.45;;;7.50;;
54428;SDS011;40337;52.978;6.310;2023-11-19T05:45:14;31.50;;;7.80;;
54428;SDS011;40337;52.978;6.310;2023-11-19T05:47:40;34.10;;;8.18;;
54428;SDS011;40337;52.978;6.310;2023-11-19T05:50:06;31.58;;;7.88;;
54428;SDS011;40337;52.978;6.310;2023-11-19T05:52:32;29.55;;;7.40;;
54428;SDS011;40337;52.978;6.310;2023-11-19T05:55:01;31.83;;;7.97;;
54428;SDS011;40337;52.978;6.310;2023-11-19T05:57:34;35.45;;;7.72;;
54428;SDS011;40337;52.978;6.310;2023-11-19T06:00:00;29.73;;;7.03;;
54428;SDS011;40337;52.978;6.310;2023-11-19T06:02:26;30.52;;;7.50;;
54428;SDS011;40337;52.978;6.310;2023-11-19T06:04:52;29.58;;;8.23;;
54428;SDS011;40337;52.978;6.310;2023-11-19T06:07:18;35.33;;;8.00;;
54428;SDS011;40337;52.978;6.310;2023-11-19T06:09:44;33.70;;;8.25;;
54428;SDS011;40337;52.978;6.310;2023-11-19T06:12:10;36.03;;;7.68;;
54428;SDS011;40337;52.978;6.310;2023-11-19T06:14:36;34.30;;;7.32;;
54428;SDS011;40337;52.978;6.310;2023-11-19T06:17:01;29.55;;;7.30;;
54428;SDS011;40337;52.978;6.310;2023-11-19T06:19:31;35.85;;;8.45;;
54428;SDS011;40337;52.978;6.310;2023-11-19T06:21:56;30.02;;;7.00;;
54428;SDS011;40337;52.978;6.310;2023-11-19T06:24:22;33.17;;;7.70;;
54428;SDS011;40337;52.978;6.310;2023-11-19T06:26:47;30.30;;;7.57;;
54428;SDS011;40337;52.978;6.310;2023-11-19T06:29:13;35.97;;;7.90;;
54428;SDS011;40337;52.978;6.310;2023-11-19T06:31:43;32.42;;;7.82;;
54428;SDS011;40337;52.978;6.310;2023-11-19T06:34:09;30.15;;;6.97;;
54428;SDS011;40337;52.978;6.310;2023-11-19T06:36:35;34.95;;;7.72;;
54428;SDS011;40337;52.978;6.310;2023-11-19T06:39:00;32.25;;;7.88;;
54428;SDS011;40337;52.978;6.310;2023-11-19T06:41:26;29.50;;;7.30;;
54428;SDS011;40337;52.978;6.310;2023-11-19T06:43:54;31.27;;;7.65;;
54428;SDS011;40337;52.978;6.310;2023-11-19T06:46:19;34.38;;;7.97;;
54428;SDS011;40337;52.978;6.310;2023-11-19T06:48:45;30.98;;;7.60;;
54428;SDS011;40337;52.978;6.310;2023-11-19T06:51:11;34.08;;;8.15;;
54428;SDS011;40337;52.978;6.310;2023-11-19T06:53:37;34.80;;;7.68;;
54428;SDS011;40337;52.978;6.310;2023-11-19T06:56:04;35.70;;;8.02;;
54428;SDS011;40337;52.978;6.310;2023-11-19T06:58:36;26.75;;;7.03;;
54428;SDS011;40337;52.978;6.310;2023-11-19T07:01:01;35.58;;;7.45;;
54428;SDS011;40337;52.978;6.310;2023-11-19T07:03:27;40.45;;;7.63;;
54428;SDS011;40337;52.978;6.310;2023-11-19T07:05:53;27.25;;;6.93;;
54428;SDS011;40337;52.978;6.310;2023-11-19T07:08:21;29.80;;;7.15;;
54428;SDS011;40337;52.978;6.310;2023-11-19T07:10:47;29.05;;;7.70;;
54428;SDS011;40337;52.978;6.310;2023-11-19T07:13:12;28.83;;;7.07;;
54428;SDS011;40337;52.978;6.310;2023-11-19T07:15:38;32.13;;;6.85;;
54428;SDS011;40337;52.978;6.310;2023-11-19T07:18:03;29.45;;;7.93;;
54428;SDS011;40337;52.978;6.310;2023-11-19T07:20:29;34.90;;;7.72;;
54428;SDS011;40337;52.978;6.310;2023-11-19T07:22:56;29.17;;;7.10;;
54428;SDS011;40337;52.978;6.310;2023-11-19T07:25:22;34.00;;;7.65;;
54428;SDS011;40337;52.978;6.310;2023-11-19T07:27:48;28.27;;;7.10;;
54428;SDS011;40337;52.978;6.310;2023-11-19T07:30:14;35.50;;;7.88;;
54428;SDS011;40337;52.978;6.310;2023-11-19T07:32:39;27.63;;;6.55;;
54428;SDS011;40337;52.978;6.310;2023-11-19T07:35:05;31.83;;;7.93;;
54428;SDS011;40337;52.978;6.310;2023-11-19T07:37:31;35.13;;;8.00;;
54428;SDS011;40337;52.978;6.310;2023-11-19T07:39:57;31.75;;;7.15;;
54428;SDS011;40337;52.978;6.310;2023-11-19T07:42:23;30.05;;;7.15;;
54428;SDS011;40337;52.978;6.310;2023-11-19T07:44:48;31.33;;;7.20;;
54428;SDS011;40337;52.978;6.310;2023-11-19T07:47:14;31.80;;;6.95;;
54428;SDS011;40337;52.978;6.310;2023-11-19T07:49:40;29.45;;;6.90;;
54428;SDS011;40337;52.978;6.310;2023-11-19T07:52:05;28.83;;;6.80;;
54428;SDS011;40337;52.978;6.310;2023-11-19T07:54:32;29.52;;;7.43;;
54428;SDS011;40337;52.978;6.310;2023-11-19T07:56:57;30.67;;;7.18;;
54428;SDS011;40337;52.978;6.310;2023-11-19T07:59:23;32.70;;;7.78;;
54428;SDS011;40337;52.978;6.310;2023-11-19T08:01:48;32.42;;;7.93;;
54428;SDS011;40337;52.978;6.310;2023-11-19T08:04:14;29.45;;;7.13;;
54428;SDS011;40337;52.978;6.310;2023-11-19T08:06:40;29.83;;;7.38;;
54428;SDS011;40337;52.978;6.310;2023-11-19T08:09:06;26.42;;;6.97;;
54428;SDS011;40337;52.978;6.310;2023-11-19T08:11:32;37.30;;;7.88;;
54428;SDS011;40337;52.978;6.310;2023-11-19T08:13:58;28.52;;;6.68;;
54428;SDS011;40337;52.978;6.310;2023-11-19T08:16:24;35.67;;;7.20;;
54428;SDS011;40337;52.978;6.310;2023-11-19T08:18:49;31.48;;;7.20;;
54428;SDS011;40337;52.978;6.310;2023-11-19T08:21:15;30.20;;;7.40;;
54428;SDS011;40337;52.978;6.310;2023-11-19T08:23:40;31.45;;;7.38;;
54428;SDS011;40337;52.978;6.310;2023-11-19T08:26:06;29.23;;;6.90;;
54428;SDS011;40337;52.978;6.310;2023-11-19T08:28:32;32.00;;;7.20;;
54428;SDS011;40337;52.978;6.310;2023-11-19T08:30:59;29.75;;;7.28;;
54428;SDS011;40337;52.978;6.310;2023-11-19T08:33:25;30.20;;;7.13;;
54428;SDS011;40337;52.978;6.310;2023-11-19T08:35:51;34.13;;;7.85;;
54428;SDS011;40337;52.978;6.310;2023-11-19T08:38:17;29.88;;;7.60;;
54428;SDS011;40337;52.978;6.310;2023-11-19T08:40:42;31.95;;;7.68;;
54428;SDS011;40337;52.978;6.310;2023-11-19T08:43:08;29.98;;;7.60;;
54428;SDS011;40337;52.978;6.310;2023-11-19T08:45:33;29.95;;;7.28;;
54428;SDS011;40337;52.978;6.310;2023-11-19T08:47:59;31.52;;;7.75;;
54428;SDS011;40337;52.978;6.310;2023-11-19T08:50:24;35.85;;;8.70;;
54428;SDS011;40337;52.978;6.310;2023-11-19T08:52:50;34.55;;;7.53;;
54428;SDS011;40337;52.978;6.310;2023-11-19T08:55:15;35.78;;;8.25;;
54428;SDS011;40337;52.978;6.310;2023-11-19T08:57:41;28.95;;;8.02;;
54428;SDS011;40337;52.978;6.310;2023-11-19T09:00:07;31.30;;;6.97;;
54428;SDS011;40337;52.978;6.310;2023-11-19T09:02:36;36.28;;;7.85;;
54428;SDS011;40337;52.978;6.310;2023-11-19T09:05:02;31.67;;;6.20;;
54428;SDS011;40337;52.978;6.310;2023-11-19T09:07:28;32.80;;;7.50;;
54428;SDS011;40337;52.978;6.310;2023-11-19T09:09:54;33.63;;;7.43;;
54428;SDS011;40337;52.978;6.310;2023-11-19T09:12:20;32.15;;;7.47;;
54428;SDS011;40337;52.978;6.310;2023-11-19T09:14:45;30.55;;;7.70;;
54428;SDS011;40337;52.978;6.310;2023-11-19T09:17:11;31.50;;;7.65;;
54428;SDS011;40337;52.978;6.310;2023-11-19T09:19:37;31.65;;;8.02;;
54428;SDS011;40337;52.978;6.310;2023-11-19T09:22:02;27.27;;;7.63;;
54428;SDS011;40337;52.978;6.310;2023-11-19T09:24:28;30.30;;;7.05;;
54428;SDS011;40337;52.978;6.310;2023-11-19T09:26:54;29.67;;;6.95;;
54428;SDS011;40337;52.978;6.310;2023-11-19T09:29:21;27.67;;;6.70;;
54428;SDS011;40337;52.978;6.310;2023-11-19T09:31:46;32.10;;;8.15;;
54428;SDS011;40337;52.978;6.310;2023-11-19T09:34:12;31.67;;;7.50;;
54428;SDS011;40337;52.978;6.310;2023-11-19T09:36:37;29.00;;;6.45;;
54428;SDS011;40337;52.978;6.310;2023-11-19T09:39:04;23.38;;;6.50;;
54428;SDS011;40337;52.978;6.310;2023-11-19T09:41:33;30.75;;;7.05;;
54428;SDS011;40337;52.978;6.310;2023-11-19T09:43:59;35.17;;;7.72;;
54428;SDS011;40337;52.978;6.310;2023-11-19T09:46:25;31.38;;;6.10;;
54428;SDS011;40337;52.978;6.310;2023-11-19T09:48:54;27.45;;;7.28;;
54428;SDS011;40337;52.978;6.310;2023-11-19T09:51:22;35.30;;;7.50;;
54428;SDS011;40337;52.978;6.310;2023-11-19T09:53:48;34.42;;;7.40;;
54428;SDS011;40337;52.978;6.310;2023-11-19T09:56:14;32.38;;;7.47;;
54428;SDS011;40337;52.978;6.310;2023-11-19T09:58:42;32.13;;;7.28;;
54428;SDS011;40337;52.978;6.310;2023-11-19T10:01:07;26.75;;;7.30;;
54428;SDS011;40337;52.978;6.310;2023-11-19T10:03:36;29.52;;;7.03;;
54428;SDS011;40337;52.978;6.310;2023-11-19T10:06:04;31.60;;;7.75;;
54428;SDS011;40337;52.978;6.310;2023-11-19T10:08:38;28.73;;;7.90;;
54428;SDS011;40337;52.978;6.310;2023-11-19T10:11:05;26.75;;;6.65;;
54428;SDS011;40337;52.978;6.310;2023-11-19T10:13:35;27.88;;;7.18;;
54428;SDS011;40337;52.978;6.310;2023-11-19T10:16:08;28.65;;;7.18;;
54428;SDS011;40337;52.978;6.310;2023-11-19T10:18:36;27.20;;;6.90;;
54428;SDS011;40337;52.978;6.310;2023-11-19T10:21:03;31.15;;;6.88;;
54428;SDS011;40337;52.978;6.310;2023-11-19T10:23:31;32.80;;;7.00;;
54428;SDS011;40337;52.978;6.310;2023-11-19T10:26:03;34.47;;;7.20;;
54428;SDS011;40337;52.978;6.310;2023-11-19T10:28:38;31.73;;;7.35;;
54428;SDS011;40337;52.978;6.310;2023-11-19T10:31:05;30.73;;;7.22;;
54428;SDS011;40337;52.978;6.310;2023-11-19T10:33:32;29.17;;;7.18;;
54428;SDS011;40337;52.978;6.310;2023-11-19T10:35:57;36.17;;;7.38;;
54428;SDS011;40337;52.978;6.310;2023-11-19T10:38:24;32.50;;;8.18;;
54428;SDS011;40337;52.978;6.310;2023-11-19T10:40:51;32.22;;;7.25;;
54428;SDS011;40337;52.978;6.310;2023-11-19T10:43:20;34.33;;;7.25;;
54428;SDS011;40337;52.978;6.310;2023-11-19T10:45:48;31.80;;;7.82;;
54428;SDS011;40337;52.978;6.310;2023-11-19T10:48:14;31.35;;;7.93;;
54428;SDS011;40337;52.978;6.310;2023-11-19T10:50:40;31.00;;;7.05;;
54428;SDS011;40337;52.978;6.310;2023-11-19T10:53:07;33.78;;;7.30;;
54428;SDS011;40337;52.978;6.310;2023-11-19T10:55:35;27.70;;;6.38;;
54428;SDS011;40337;52.978;6.310;2023-11-19T10:58:07;30.08;;;6.78;;
54428;SDS011;40337;52.978;6.310;2023-11-19T11:00:41;34.35;;;7.55;;
54428;SDS011;40337;52.978;6.310;2023-11-19T11:03:10;33.95;;;7.97;;
54428;SDS011;40337;52.978;6.310;2023-11-19T11:05:41;29.05;;;6.72;;
54428;SDS011;40337;52.978;6.310;2023-11-19T11:08:08;30.60;;;7.57;;
54428;SDS011;40337;52.978;6.310;2023-11-19T11:10:36;35.30;;;7.45;;
54428;SDS011;40337;52.978;6.310;2023-11-19T11:13:06;31.50;;;7.43;;
54428;SDS011;40337;52.978;6.310;2023-11-19T11:15:33;30.60;;;7.60;;
54428;SDS011;40337;52.978;6.310;2023-11-19T11:18:00;31.83;;;7.00;;
54428;SDS011;40337;52.978;6.310;2023-11-19T11:20:27;32.80;;;6.68;;
54428;SDS011;40337;52.978;6.310;2023-11-19T11:23:02;29.15;;;7.03;;
54428;SDS011;40337;52.978;6.310;2023-11-19T11:26:00;31.38;;;6.68;;
54428;SDS011;40337;52.978;6.310;2023-11-19T11:28:52;26.38;;;6.47;;
54428;SDS011;40337;52.978;6.310;2023-11-19T11:39:43;31.38;;;7.65;;
54428;SDS011;40337;52.978;6.310;2023-11-19T11:44:57;26.85;;;6.57;;
54428;SDS011;40337;52.978;6.310;2023-11-19T11:47:25;26.38;;;6.57;;
54428;SDS011;40337;52.978;6.310;2023-11-19T11:49:50;25.25;;;5.93;;
54428;SDS011;40337;52.978;6.310;2023-11-19T11:52:17;27.40;;;6.32;;
54428;SDS011;40337;52.978;6.310;2023-11-19T11:54:43;27.85;;;7.18;;
54428;SDS011;40337;52.978;6.310;2023-11-19T11:57:10;27.63;;;6.47;;
54428;SDS011;40337;52.978;6.310;2023-11-19T12:02:14;29.85;;;7.07;;
54428;SDS011;40337;52.978;6.310;2023-11-19T12:04:41;29.23;;;7.03;;
54428;SDS011;40337;52.978;6.310;2023-11-19T12:09:43;29.35;;;6.85;;
54428;SDS011;40337;52.978;6.310;2023-11-19T12:12:26;25.40;;;6.40;;
54428;SDS011;40337;52.978;6.310;2023-11-19T12:22:30;22.23;;;5.75;;
54428;SDS011;40337;52.978;6.310;2023-11-19T12:24:55;24.38;;;6.20;;
54428;SDS011;40337;52.978;6.310;2023-11-19T12:27:21;26.45;;;6.25;;
54428;SDS011;40337;52.978;6.310;2023-11-19T12:29:48;27.48;;;5.85;;
54428;SDS011;40337;52.978;6.310;2023-11-19T12:32:14;24.35;;;6.20;;
54428;SDS011;40337;52.978;6.310;2023-11-19T12:34:39;25.45;;;6.20;;
54428;SDS011;40337;52.978;6.310;2023-11-19T12:37:05;23.42;;;5.90;;
54428;SDS011;40337;52.978;6.310;2023-11-19T12:39:31;26.98;;;6.22;;
54428;SDS011;40337;52.978;6.310;2023-11-19T12:41:57;27.88;;;5.72;;
54428;SDS011;40337;52.978;6.310;2023-11-19T12:44:26;26.92;;;6.35;;
54428;SDS011;40337;52.978;6.310;2023-11-19T12:47:05;27.63;;;6.93;;
54428;SDS011;40337;52.978;6.310;2023-11-19T12:49:32;28.15;;;6.28;;
54428;SDS011;40337;52.978;6.310;2023-11-19T12:51:58;27.38;;;6.60;;
54428;SDS011;40337;52.978;6.310;2023-11-19T12:54:34;22.88;;;6.25;;
54428;SDS011;40337;52.978;6.310;2023-11-19T12:57:00;24.98;;;6.30;;
54428;SDS011;40337;52.978;6.310;2023-11-19T12:59:27;21.10;;;4.85;;
54428;SDS011;40337;52.978;6.310;2023-11-19T13:01:59;22.30;;;6.03;;
54428;SDS011;40337;52.978;6.310;2023-11-19T13:04:28;24.20;;;6.25;;
54428;SDS011;40337;52.978;6.310;2023-11-19T13:07:01;26.35;;;5.88;;
54428;SDS011;40337;52.978;6.310;2023-11-19T13:09:29;27.00;;;5.82;;
54428;SDS011;40337;52.978;6.310;2023-11-19T13:11:55;26.85;;;5.88;;
54428;SDS011;40337;52.978;6.310;2023-11-19T13:14:21;21.83;;;5.13;;
54428;SDS011;40337;52.978;6.310;2023-11-19T13:16:48;20.30;;;5.40;;
54428;SDS011;40337;52.978;6.310;2023-11-19T13:19:14;21.77;;;5.72;;
54428;SDS011;40337;52.978;6.310;2023-11-19T13:21:44;26.02;;;6.35;;
54428;SDS011;40337;52.978;6.310;2023-11-19T13:24:12;26.00;;;5.25;;
54428;SDS011;40337;52.978;6.310;2023-11-19T13:26:38;20.00;;;4.97;;
54428;SDS011;40337;52.978;6.310;2023-11-19T13:29:03;20.63;;;5.30;;
54428;SDS011;40337;52.978;6.310;2023-11-19T13:31:29;27.00;;;5.72;;
54428;SDS011;40337;52.978;6.310;2023-11-19T13:33:55;24.73;;;5.82;;
54428;SDS011;40337;52.978;6.310;2023-11-19T13:36:21;25.90;;;5.97;;
54428;SDS011;40337;52.978;6.310;2023-11-19T13:38:47;20.08;;;5.13;;
54428;SDS011;40337;52.978;6.310;2023-11-19T13:41:13;25.98;;;5.95;;
54428;SDS011;40337;52.978;6.310;2023-11-19T13:43:38;27.48;;;6.60;;
54428;SDS011;40337;52.978;6.310;2023-11-19T13:46:04;21.48;;;5.32;;
54428;SDS011;40337;52.978;6.310;2023-11-19T13:48:30;23.73;;;5.80;;
54428;SDS011;40337;52.978;6.310;2023-11-19T13:50:56;23.13;;;5.75;;
54428;SDS011;40337;52.978;6.310;2023-11-19T13:53:22;24.77;;;6.57;;
54428;SDS011;40337;52.978;6.310;2023-11-19T13:55:50;23.50;;;5.70;;
54428;SDS011;40337;52.978;6.310;2023-11-19T13:58:16;24.33;;;5.55;;
54428;SDS011;40337;52.978;6.310;2023-11-19T14:00:42;24.80;;;6.13;;
54428;SDS011;40337;52.978;6.310;2023-11-19T14:03:08;23.98;;;5.53;;
54428;SDS011;40337;52.978;6.310;2023-11-19T14:05:35;24.52;;;6.05;;
54428;SDS011;40337;52.978;6.310;2023-11-19T14:08:01;26.08;;;5.97;;
54428;SDS011;40337;52.978;6.310;2023-11-19T14:10:26;25.48;;;6.15;;
54428;SDS011;40337;52.978;6.310;2023-11-19T14:12:52;24.00;;;5.63;;
54428;SDS011;40337;52.978;6.310;2023-11-19T14:15:17;22.15;;;5.47;;
54428;SDS011;40337;52.978;6.310;2023-11-19T14:17:43;26.67;;;6.28;;
54428;SDS011;40337;52.978;6.310;2023-11-19T14:20:09;25.38;;;5.88;;
54428;SDS011;40337;52.978;6.310;2023-11-19T14:22:39;26.73;;;6.65;;
54428;SDS011;40337;52.978;6.310;2023-11-19T14:25:08;23.85;;;5.57;;
54428;SDS011;40337;52.978;6.310;2023-11-19T14:27:37;23.85;;;5.43;;
54428;SDS011;40337;52.978;6.310;2023-11-19T14:30:05;24.73;;;5.80;;
54428;SDS011;40337;52.978;6.310;2023-11-19T14:32:32;31.33;;;6.38;;
54428;SDS011;40337;52.978;6.310;2023-11-19T14:34:57;26.90;;;5.70;;
54428;SDS011;40337;52.978;6.310;2023-11-19T14:37:23;26.25;;;5.68;;
54428;SDS011;40337;52.978;6.310;2023-11-19T14:39:49;26.88;;;6.60;;
54428;SDS011;40337;52.978;6.310;2023-11-19T14:42:17;24.40;;;5.97;;
54428;SDS011;40337;52.978;6.310;2023-11-19T14:44:43;26.27;;;5.78;;
54428;SDS011;40337;52.978;6.310;2023-11-19T14:47:09;31.58;;;6.13;;
54428;SDS011;40337;52.978;6.310;2023-11-19T14:49:35;26.80;;;5.97;;
54428;SDS011;40337;52.978;6.310;2023-11-19T14:52:02;20.63;;;5.75;;
54428;SDS011;40337;52.978;6.310;2023-11-19T14:54:31;22.90;;;5.90;;